createdAt,value
2023-05-19T00:00:10.127Z,337.00
2023-05-19T00:01:10.207Z,336.00
2023-05-19T00:02:10.366Z,337.00
2023-05-19T00:03:10.392Z,337.00
2023-05-19T00:04:10.364Z,333.00
2023-05-19T00:05:10.439Z,337.00
2023-05-19T00:06:10.508Z,336.00
2023-05-19T00:07:10.545Z,336.00
2023-05-19T00:08:10.566Z,333.00
2023-05-19T00:09:10.636Z,328.00
2023-05-19T00:10:10.670Z,328.00
2023-05-19T00:11:10.702Z,326.00
2023-05-19T00:12:10.915Z,324.00
2023-05-19T00:13:10.901Z,325.00
2023-05-19T00:14:10.955Z,328.00
2023-05-19T00:15:11.014Z,327.00
2023-05-19T00:16:11.102Z,328.00
2023-05-19T00:17:11.126Z,327.00
2023-05-19T00:18:11.192Z,327.00
2023-05-19T00:19:11.200Z,328.00
2023-05-19T00:20:11.213Z,329.00
2023-05-19T00:21:11.231Z,329.00
2023-05-19T00:22:11.334Z,331.00
2023-05-19T00:23:11.374Z,333.00
2023-05-19T00:24:11.406Z,336.00
2023-05-19T00:25:11.485Z,336.00
2023-05-19T00:26:11.519Z,334.00
2023-05-19T00:27:11.558Z,337.00
2023-05-19T00:28:11.649Z,339.00
2023-05-19T00:29:11.719Z,341.00
2023-05-19T00:30:11.761Z,341.00
2023-05-19T00:31:11.856Z,341.00
2023-05-19T00:32:12.015Z,342.00
2023-05-19T00:33:12.049Z,341.00
2023-05-19T00:34:12.064Z,340.00
2023-05-19T00:35:12.077Z,338.00
2023-05-19T00:36:12.200Z,339.00
2023-05-19T00:37:12.136Z,340.00
2023-05-19T00:38:12.199Z,337.00
2023-05-19T00:39:12.214Z,338.00
2023-05-19T00:40:12.210Z,335.00
2023-05-19T00:41:12.239Z,335.00
2023-05-19T00:42:12.323Z,336.00
2023-05-19T00:43:12.299Z,336.00
2023-05-19T00:44:12.332Z,334.00
2023-05-19T00:45:12.329Z,333.00
2023-05-19T00:46:12.654Z,334.00
2023-05-19T00:47:12.461Z,334.00
2023-05-19T00:48:12.468Z,332.00
2023-05-19T00:49:12.549Z,331.00
2023-05-19T00:50:13.547Z,329.00
2023-05-19T00:51:12.687Z,330.00
2023-05-19T00:52:12.693Z,332.00
2023-05-19T00:53:12.701Z,332.00
2023-05-19T00:54:12.697Z,332.00
2023-05-19T00:55:12.660Z,332.00
2023-05-19T00:56:12.664Z,330.00
2023-05-19T00:57:12.769Z,332.00
2023-05-19T00:58:12.836Z,332.00
2023-05-19T00:59:12.838Z,331.00
2023-05-19T01:00:13.073Z,333.00
2023-05-19T01:01:12.893Z,332.00
2023-05-19T01:02:12.899Z,331.00
2023-05-19T01:03:13.198Z,332.00
2023-05-19T01:04:13.027Z,337.00
2023-05-19T01:05:13.190Z,335.00
2023-05-19T01:06:13.188Z,333.00
2023-05-19T01:07:13.132Z,333.00
2023-05-19T01:08:13.172Z,331.00
2023-05-19T01:09:13.175Z,331.00
2023-05-19T01:10:13.166Z,328.00
2023-05-19T01:11:13.210Z,328.00
2023-05-19T01:12:13.355Z,329.00
2023-05-19T01:13:13.447Z,329.00
2023-05-19T01:14:13.407Z,329.00
2023-05-19T01:15:13.465Z,329.00
2023-05-19T01:16:13.620Z,327.00
2023-05-19T01:17:13.400Z,328.00
2023-05-19T01:18:13.435Z,330.00
2023-05-19T01:19:13.538Z,330.00
2023-05-19T01:20:13.658Z,329.00
2023-05-19T01:21:13.714Z,327.00
2023-05-19T01:22:13.799Z,328.00
2023-05-19T01:23:13.918Z,327.00
2023-05-19T01:24:13.994Z,329.00
2023-05-19T01:25:14.155Z,330.00
2023-05-19T01:26:14.242Z,330.00
2023-05-19T01:27:14.285Z,331.00
2023-05-19T01:28:14.392Z,331.00
2023-05-19T01:29:14.412Z,331.00
2023-05-19T01:30:14.440Z,330.00
2023-05-19T01:31:14.445Z,329.00
2023-05-19T01:32:14.501Z,326.00
2023-05-19T01:33:14.444Z,327.00
2023-05-19T01:34:14.533Z,325.00
2023-05-19T01:35:14.725Z,326.00
2023-05-19T01:36:14.630Z,327.00
2023-05-19T01:37:14.647Z,327.00
2023-05-19T01:38:14.604Z,325.00
2023-05-19T01:39:14.649Z,325.00
2023-05-19T01:40:14.605Z,326.00
2023-05-19T01:41:14.670Z,326.00
2023-05-19T01:42:14.613Z,326.00
2023-05-19T01:43:14.703Z,329.00
2023-05-19T01:44:14.643Z,332.00
2023-05-19T01:45:14.695Z,332.00
2023-05-19T01:46:14.793Z,330.00
2023-05-19T01:47:14.767Z,330.00
2023-05-19T01:48:14.805Z,329.00
2023-05-19T01:49:14.783Z,328.00
2023-05-19T01:50:14.778Z,327.00
2023-05-19T01:51:14.785Z,326.00
2023-05-19T01:52:14.876Z,328.00
2023-05-19T01:53:14.898Z,329.00
2023-05-19T01:54:14.908Z,332.00
2023-05-19T01:55:14.887Z,331.00
2023-05-19T01:56:14.910Z,329.00
2023-05-19T01:57:14.907Z,329.00
2023-05-19T01:58:14.992Z,328.00
2023-05-19T01:59:15.095Z,330.00
2023-05-19T02:00:15.015Z,330.00
2023-05-19T02:01:15.027Z,328.00
2023-05-19T02:02:15.301Z,326.00
2023-05-19T02:03:15.129Z,326.00
2023-05-19T02:04:15.256Z,327.00
2023-05-19T02:05:15.261Z,328.00
2023-05-19T02:06:15.256Z,329.00
2023-05-19T02:07:15.290Z,329.00
2023-05-19T02:08:15.364Z,328.00
2023-05-19T02:09:15.477Z,330.00
2023-05-19T02:10:15.570Z,329.00
2023-05-19T02:11:15.594Z,330.00
2023-05-19T02:12:15.642Z,330.00
2023-05-19T02:13:15.590Z,328.00
2023-05-19T02:14:15.655Z,327.00
2023-05-19T02:15:15.673Z,325.00
2023-05-19T02:16:15.678Z,326.00
2023-05-19T02:17:15.676Z,325.00
2023-05-19T02:18:15.731Z,325.00
2023-05-19T02:19:15.720Z,326.00
2023-05-19T02:20:15.743Z,325.00
2023-05-19T02:21:15.849Z,324.00
2023-05-19T02:22:15.882Z,326.00
2023-05-19T02:23:15.877Z,326.00
2023-05-19T02:24:15.928Z,326.00
2023-05-19T02:25:15.927Z,325.00
2023-05-19T02:26:15.924Z,322.00
2023-05-19T02:27:15.948Z,322.00
2023-05-19T02:28:15.954Z,323.00
2023-05-19T02:29:15.951Z,322.00
2023-05-19T02:30:15.966Z,321.00
2023-05-19T02:31:16.029Z,321.00
2023-05-19T02:32:16.002Z,320.00
2023-05-19T02:33:16.039Z,324.00
2023-05-19T02:34:16.062Z,325.00
2023-05-19T02:35:16.024Z,324.00
2023-05-19T02:36:16.069Z,323.00
2023-05-19T02:37:16.128Z,322.00
2023-05-19T02:38:16.209Z,323.00
2023-05-19T02:39:16.186Z,323.00
2023-05-19T02:40:16.194Z,326.00
2023-05-19T02:41:16.208Z,328.00
2023-05-19T02:42:16.228Z,329.00
2023-05-19T02:43:16.316Z,331.00
2023-05-19T02:44:16.308Z,331.00
2023-05-19T02:45:16.305Z,333.00
2023-05-19T02:46:16.365Z,331.00
2023-05-19T02:47:16.336Z,331.00
2023-05-19T02:48:16.450Z,328.00
2023-05-19T02:49:16.450Z,324.00
2023-05-19T02:50:16.464Z,324.00
2023-05-19T02:51:16.474Z,324.00
2023-05-19T02:52:16.493Z,326.00
2023-05-19T02:53:16.578Z,327.00
2023-05-19T02:54:16.596Z,328.00
2023-05-19T02:55:16.726Z,327.00
2023-05-19T02:56:16.700Z,326.00
2023-05-19T02:57:16.718Z,329.00
2023-05-19T02:58:16.743Z,330.00
2023-05-19T02:59:16.721Z,329.00
2023-05-19T03:00:16.745Z,328.00
2023-05-19T03:01:16.930Z,328.00
2023-05-19T03:02:16.979Z,328.00
2023-05-19T03:03:17.097Z,329.00
2023-05-19T03:04:17.152Z,330.00
2023-05-19T03:05:17.168Z,330.00
2023-05-19T03:06:17.139Z,327.00
2023-05-19T03:07:17.123Z,324.00
2023-05-19T03:08:17.179Z,324.00
2023-05-19T03:09:17.176Z,325.00
2023-05-19T03:10:17.275Z,326.00
2023-05-19T03:11:17.286Z,325.00
2023-05-19T03:12:17.345Z,325.00
2023-05-19T03:13:17.339Z,324.00
2023-05-19T03:14:17.350Z,324.00
2023-05-19T03:15:17.354Z,325.00
2023-05-19T03:16:17.437Z,328.00
2023-05-19T03:17:17.745Z,330.00
2023-05-19T03:18:17.408Z,330.00
2023-05-19T03:19:17.532Z,331.00
2023-05-19T03:20:17.525Z,329.00
2023-05-19T03:21:17.524Z,326.00
2023-05-19T03:22:17.523Z,327.00
2023-05-19T03:23:17.519Z,327.00
2023-05-19T03:24:17.546Z,329.00
2023-05-19T03:25:17.644Z,328.00
2023-05-19T03:26:17.704Z,324.00
2023-05-19T03:27:17.856Z,325.00
2023-05-19T03:28:17.982Z,327.00
2023-05-19T03:29:18.057Z,327.00
2023-05-19T03:30:18.142Z,327.00
2023-05-19T03:31:18.187Z,326.00
2023-05-19T03:32:18.233Z,325.00
2023-05-19T03:33:18.382Z,328.00
2023-05-19T03:34:18.213Z,327.00
2023-05-19T03:35:18.220Z,326.00
2023-05-19T03:36:18.229Z,326.00
2023-05-19T03:37:18.228Z,325.00
2023-05-19T03:38:18.257Z,327.00
2023-05-19T03:39:18.240Z,328.00
2023-05-19T03:40:18.364Z,325.00
2023-05-19T03:41:18.346Z,325.00
2023-05-19T03:42:18.368Z,324.00
2023-05-19T03:43:18.330Z,324.00
2023-05-19T03:44:18.378Z,323.00
2023-05-19T03:45:18.342Z,325.00
2023-05-19T03:46:18.429Z,325.00
2023-05-19T03:47:18.400Z,325.00
2023-05-19T03:48:21.092Z,324.00
2023-05-19T03:49:18.428Z,323.00
2023-05-19T03:50:18.415Z,322.00
2023-05-19T03:51:18.421Z,322.00
2023-05-19T03:52:18.397Z,322.00
2023-05-19T03:53:18.448Z,321.00
2023-05-19T03:54:18.382Z,321.00
2023-05-19T03:55:18.354Z,322.00
2023-05-19T03:56:18.383Z,321.00
2023-05-19T03:57:18.344Z,324.00
2023-05-19T03:58:18.336Z,324.00
2023-05-19T03:59:18.333Z,323.00
2023-05-19T04:00:18.318Z,326.00
2023-05-19T04:01:18.331Z,326.00
2023-05-19T04:02:18.337Z,324.00
2023-05-19T04:03:18.546Z,326.00
2023-05-19T04:04:18.380Z,329.00
2023-05-19T04:05:18.331Z,329.00
2023-05-19T04:06:18.324Z,331.00
2023-05-19T04:07:18.330Z,333.00
2023-05-19T04:08:18.311Z,335.00
2023-05-19T04:09:18.285Z,336.00
2023-05-19T04:10:18.295Z,337.00
2023-05-19T04:11:18.265Z,337.00
2023-05-19T04:12:18.299Z,338.00
2023-05-19T04:13:18.266Z,341.00
2023-05-19T04:14:18.257Z,342.00
2023-05-19T04:15:18.251Z,342.00
2023-05-19T04:16:18.272Z,343.00
2023-05-19T04:17:18.226Z,347.00
2023-05-19T04:18:18.221Z,350.00
2023-05-19T04:19:18.227Z,349.00
2023-05-19T04:20:18.209Z,352.00
2023-05-19T04:21:18.217Z,355.00
2023-05-19T04:22:18.207Z,353.00
2023-05-19T04:23:18.179Z,355.00
2023-05-19T04:24:18.203Z,356.00
2023-05-19T04:25:18.191Z,357.00
2023-05-19T04:26:18.175Z,359.00
2023-05-19T04:27:18.160Z,359.00
2023-05-19T04:28:18.174Z,362.00
2023-05-19T04:29:18.583Z,363.00
2023-05-19T04:30:18.780Z,364.00
2023-05-19T04:31:18.155Z,366.00
2023-05-19T04:32:18.218Z,367.00
2023-05-19T04:33:18.154Z,366.00
2023-05-19T04:34:18.135Z,366.00
2023-05-19T04:35:18.108Z,366.00
2023-05-19T04:36:18.113Z,366.00
2023-05-19T04:37:18.108Z,366.00
2023-05-19T04:38:18.131Z,367.00
2023-05-19T04:39:18.077Z,365.00
2023-05-19T04:40:18.069Z,364.00
2023-05-19T04:41:18.078Z,365.00
2023-05-19T04:42:18.078Z,365.00
2023-05-19T04:43:18.104Z,367.00
2023-05-19T04:44:18.133Z,369.00
2023-05-19T04:45:18.053Z,369.00
2023-05-19T04:46:18.038Z,372.00
2023-05-19T04:47:18.023Z,372.00
2023-05-19T04:48:18.014Z,371.00
2023-05-19T04:49:17.995Z,372.00
2023-05-19T04:50:18.018Z,375.00
2023-05-19T04:51:18.071Z,370.00
2023-05-19T04:52:18.109Z,369.00
2023-05-19T04:53:18.116Z,368.00
2023-05-19T04:54:18.121Z,367.00
2023-05-19T04:55:18.172Z,364.00
2023-05-19T04:56:18.174Z,365.00
2023-05-19T04:57:18.156Z,363.00
2023-05-19T04:58:18.185Z,362.00
2023-05-19T04:59:18.201Z,365.00
2023-05-19T05:00:18.293Z,362.00
2023-05-19T05:01:18.421Z,363.00
2023-05-19T05:02:18.552Z,365.00
2023-05-19T05:03:18.487Z,366.00
2023-05-19T05:04:18.438Z,368.00
2023-05-19T05:05:18.531Z,368.00
2023-05-19T05:06:18.519Z,367.00
2023-05-19T05:07:18.509Z,367.00
2023-05-19T05:08:18.553Z,366.00
2023-05-19T05:09:18.565Z,367.00
2023-05-19T05:10:18.604Z,369.00
2023-05-19T05:11:18.665Z,369.00
2023-05-19T05:12:18.696Z,367.00
2023-05-19T05:13:18.690Z,365.00
2023-05-19T05:14:18.678Z,367.00
2023-05-19T05:15:18.807Z,364.00
2023-05-19T05:16:18.883Z,366.00
2023-05-19T05:17:18.813Z,366.00
2023-05-19T05:18:18.829Z,366.00
2023-05-19T05:19:18.866Z,362.00
2023-05-19T05:20:18.912Z,361.00
2023-05-19T05:21:18.993Z,361.00
2023-05-19T05:22:19.094Z,363.00
2023-05-19T05:23:19.208Z,367.00
2023-05-19T05:24:19.279Z,366.00
2023-05-19T05:25:19.278Z,364.00
2023-05-19T05:26:19.286Z,363.00
2023-05-19T05:27:19.304Z,363.00
2023-05-19T05:28:19.347Z,358.00
2023-05-19T05:29:19.305Z,360.00
2023-05-19T05:30:20.323Z,363.00
2023-05-19T05:31:19.375Z,363.00
2023-05-19T05:32:19.403Z,363.00
2023-05-19T05:33:19.525Z,364.00
2023-05-19T05:34:19.394Z,364.00
2023-05-19T05:35:19.361Z,364.00
2023-05-19T05:36:19.513Z,365.00
2023-05-19T05:37:19.504Z,366.00
2023-05-19T05:38:19.516Z,367.00
2023-05-19T05:39:19.469Z,366.00
2023-05-19T05:40:19.509Z,363.00
2023-05-19T05:41:19.507Z,361.00
2023-05-19T05:42:19.551Z,358.00
2023-05-19T05:43:19.568Z,360.00
2023-05-19T05:44:19.573Z,361.00
2023-05-19T05:45:19.550Z,361.00
2023-05-19T05:46:19.577Z,361.00
2023-05-19T05:47:19.596Z,361.00
2023-05-19T05:48:19.601Z,365.00
2023-05-19T05:49:19.581Z,367.00
2023-05-19T05:50:19.604Z,364.00
2023-05-19T05:51:19.622Z,363.00
2023-05-19T05:52:19.577Z,365.00
2023-05-19T05:53:19.553Z,364.00
2023-05-19T05:54:19.620Z,363.00
2023-05-19T05:55:19.734Z,362.00
2023-05-19T05:56:19.869Z,361.00
2023-05-19T05:57:19.797Z,363.00
2023-05-19T05:58:19.822Z,363.00
2023-05-19T05:59:20.152Z,362.00
2023-05-19T06:00:19.865Z,363.00
2023-05-19T06:01:19.927Z,362.00
2023-05-19T06:02:20.042Z,364.00
2023-05-19T06:03:20.241Z,363.00
2023-05-19T06:04:20.202Z,363.00
2023-05-19T06:05:20.360Z,362.00
2023-05-19T06:06:20.269Z,362.00
2023-05-19T06:07:20.283Z,361.00
2023-05-19T06:08:20.332Z,360.00
2023-05-19T06:09:20.361Z,362.00
2023-05-19T06:10:20.378Z,362.00
2023-05-19T06:11:20.371Z,364.00
2023-05-19T06:12:20.462Z,364.00
2023-05-19T06:13:20.514Z,364.00
2023-05-19T06:14:20.560Z,363.00
2023-05-19T06:15:20.633Z,364.00
2023-05-19T06:16:20.698Z,365.00
2023-05-19T06:17:20.759Z,366.00
2023-05-19T06:18:20.773Z,367.00
2023-05-19T06:19:20.827Z,367.00
2023-05-19T06:20:20.854Z,366.00
2023-05-19T06:21:20.900Z,364.00
2023-05-19T06:22:20.931Z,363.00
2023-05-19T06:23:20.980Z,361.00
2023-05-19T06:24:21.024Z,363.00
2023-05-19T06:25:21.037Z,363.00
2023-05-19T06:26:21.053Z,362.00
2023-05-19T06:27:21.101Z,361.00
2023-05-19T06:28:21.180Z,358.00
2023-05-19T06:29:21.189Z,359.00
2023-05-19T06:30:21.228Z,361.00
2023-05-19T06:31:21.271Z,361.00
2023-05-19T06:32:21.330Z,359.00
2023-05-19T06:33:21.286Z,358.00
2023-05-19T06:34:21.356Z,356.00
2023-05-19T06:35:21.411Z,357.00
2023-05-19T06:36:21.438Z,357.00
2023-05-19T06:37:21.479Z,358.00
2023-05-19T06:38:21.503Z,358.00
2023-05-19T06:39:21.564Z,357.00
2023-05-19T06:40:21.597Z,356.00
2023-05-19T06:41:21.593Z,356.00
2023-05-19T06:42:21.611Z,355.00
2023-05-19T06:43:21.667Z,355.00
2023-05-19T06:44:21.663Z,350.00
2023-05-19T06:45:21.675Z,351.00
2023-05-19T06:46:21.753Z,352.00
2023-05-19T06:47:21.746Z,353.00
2023-05-19T06:48:21.749Z,355.00
2023-05-19T06:49:21.765Z,356.00
2023-05-19T06:50:21.774Z,356.00
2023-05-19T06:51:21.820Z,358.00
2023-05-19T06:52:21.779Z,361.00
2023-05-19T06:53:21.805Z,360.00
2023-05-19T06:54:21.821Z,359.00
2023-05-19T06:55:21.806Z,360.00
2023-05-19T06:56:21.800Z,359.00
2023-05-19T06:57:21.833Z,359.00
2023-05-19T06:58:21.897Z,358.00
2023-05-19T06:59:21.906Z,362.00
2023-05-19T07:00:23.830Z,362.00
2023-05-19T07:01:22.050Z,361.00
2023-05-19T07:02:22.013Z,361.00
2023-05-19T07:03:22.178Z,362.00
2023-05-19T07:04:22.139Z,364.00
2023-05-19T07:05:22.176Z,362.00
2023-05-19T07:06:22.247Z,361.00
2023-05-19T07:07:22.298Z,359.00
2023-05-19T07:08:22.311Z,358.00
2023-05-19T07:09:22.406Z,362.00
2023-05-19T07:10:22.405Z,361.00
2023-05-19T07:11:22.476Z,357.00
2023-05-19T07:12:22.502Z,355.00
2023-05-19T07:13:23.260Z,356.00
2023-05-19T07:14:22.560Z,357.00
2023-05-19T07:15:22.581Z,359.00
2023-05-19T07:16:22.757Z,359.00
2023-05-19T07:17:22.894Z,359.00
2023-05-19T07:18:22.741Z,359.00
2023-05-19T07:19:22.863Z,360.00
2023-05-19T07:20:22.784Z,363.00
2023-05-19T07:21:22.845Z,365.00
2023-05-19T07:22:22.866Z,366.00
2023-05-19T07:23:22.930Z,363.00
2023-05-19T07:24:22.922Z,363.00
2023-05-19T07:25:23.030Z,362.00
2023-05-19T07:26:23.038Z,363.00
2023-05-19T07:27:23.145Z,361.00
2023-05-19T07:28:23.156Z,360.00
2023-05-19T07:29:23.228Z,357.00
2023-05-19T07:30:23.271Z,358.00
2023-05-19T07:31:23.402Z,355.00
2023-05-19T07:32:23.617Z,356.00
2023-05-19T07:33:23.455Z,357.00
2023-05-19T07:34:23.503Z,358.00
2023-05-19T07:35:23.548Z,361.00
2023-05-19T07:36:23.613Z,359.00
2023-05-19T07:37:23.690Z,360.00
2023-05-19T07:38:23.757Z,358.00
2023-05-19T07:39:23.843Z,360.00
2023-05-19T07:40:23.810Z,358.00
2023-05-19T07:41:23.931Z,358.00
2023-05-19T07:42:23.918Z,358.00
2023-05-19T07:43:23.979Z,357.00
2023-05-19T07:44:24.014Z,357.00
2023-05-19T07:45:24.077Z,356.00
2023-05-19T07:46:24.206Z,359.00
2023-05-19T07:47:24.208Z,360.00
2023-05-19T07:48:24.203Z,360.00
2023-05-19T07:49:24.287Z,360.00
2023-05-19T07:50:24.329Z,363.00
2023-05-19T07:51:24.367Z,363.00
2023-05-19T07:52:24.356Z,365.00
2023-05-19T07:53:24.415Z,364.00
2023-05-19T07:54:24.496Z,363.00
2023-05-19T07:55:24.464Z,361.00
2023-05-19T07:56:24.487Z,361.00
2023-05-19T07:57:24.507Z,360.00
2023-05-19T07:58:24.552Z,362.00
2023-05-19T07:59:24.548Z,361.00
2023-05-19T08:00:24.646Z,359.00
2023-05-19T08:01:24.854Z,360.00
2023-05-19T08:02:24.706Z,361.00
2023-05-19T08:03:24.785Z,361.00
2023-05-19T08:04:24.742Z,359.00
2023-05-19T08:05:24.653Z,357.00
2023-05-19T08:06:24.710Z,359.00
2023-05-19T08:07:24.754Z,363.00
2023-05-19T08:08:24.722Z,364.00
2023-05-19T08:09:24.785Z,368.00
2023-05-19T08:10:24.880Z,363.00
2023-05-19T08:11:24.825Z,363.00
2023-05-19T08:12:24.890Z,360.00
2023-05-19T08:13:24.915Z,360.00
2023-05-19T08:14:24.933Z,361.00
2023-05-19T08:15:24.973Z,363.00
2023-05-19T08:16:25.027Z,362.00
2023-05-19T08:17:25.091Z,363.00
2023-05-19T08:18:25.100Z,365.00
2023-05-19T08:19:25.192Z,362.00
2023-05-19T08:20:25.158Z,364.00
2023-05-19T08:21:25.182Z,363.00
2023-05-19T08:22:25.190Z,360.00
2023-05-19T08:23:25.238Z,362.00
2023-05-19T08:24:25.271Z,363.00
2023-05-19T08:25:25.281Z,366.00
2023-05-19T08:26:25.306Z,369.00
2023-05-19T08:27:25.296Z,369.00
2023-05-19T08:28:25.353Z,370.00
2023-05-19T08:30:25.344Z,370.00
2023-05-19T08:31:25.482Z,371.00
2023-05-19T08:32:25.430Z,373.00
2023-05-19T08:33:25.368Z,374.00
2023-05-19T08:34:25.417Z,375.00
2023-05-19T08:35:25.449Z,373.00
2023-05-19T08:36:25.514Z,374.00
2023-05-19T08:37:25.540Z,372.00
2023-05-19T08:38:25.613Z,370.00
2023-05-19T08:39:25.697Z,369.00
2023-05-19T08:40:25.766Z,368.00
2023-05-19T08:41:25.767Z,370.00
2023-05-19T08:42:25.830Z,370.00
2023-05-19T08:43:25.909Z,374.00
2023-05-19T08:44:25.990Z,369.00
2023-05-19T08:45:25.995Z,370.00
2023-05-19T08:46:26.205Z,369.00
2023-05-19T08:47:26.173Z,367.00
2023-05-19T08:48:26.217Z,369.00
2023-05-19T08:49:26.230Z,372.00
2023-05-19T08:50:26.281Z,371.00
2023-05-19T08:51:26.333Z,371.00
2023-05-19T08:52:26.417Z,370.00
2023-05-19T08:54:27.480Z,370.00
2023-05-19T08:55:26.471Z,369.00
2023-05-19T08:56:26.446Z,366.00
2023-05-19T08:57:26.433Z,365.00
2023-05-19T08:58:28.120Z,363.00
2023-05-19T08:59:26.432Z,363.00
2023-05-19T09:00:26.436Z,364.00
2023-05-19T09:01:26.537Z,364.00
2023-05-19T09:02:26.586Z,362.00
2023-05-19T09:03:26.754Z,361.00
2023-05-19T09:04:28.410Z,360.00
2023-05-19T09:05:26.717Z,360.00
2023-05-19T09:06:26.686Z,362.00
2023-05-19T09:07:26.684Z,361.00
2023-05-19T09:08:26.617Z,361.00
2023-05-19T09:09:26.672Z,362.00
2023-05-19T09:10:27.935Z,363.00
2023-05-19T09:11:26.775Z,361.00
2023-05-19T09:12:26.787Z,361.00
2023-05-19T09:13:26.868Z,360.00
2023-05-19T09:14:26.895Z,361.00
2023-05-19T09:15:26.958Z,361.00
2023-05-19T09:16:28.618Z,360.00
2023-05-19T09:17:27.064Z,363.00
2023-05-19T09:18:27.102Z,362.00
2023-05-19T09:19:27.143Z,360.00
2023-05-19T09:20:26.997Z,364.00
2023-05-19T09:21:26.936Z,362.00
2023-05-19T09:22:26.969Z,362.00
2023-05-19T09:23:26.958Z,362.00
2023-05-19T09:24:26.980Z,365.00
2023-05-19T09:25:26.962Z,365.00
2023-05-19T09:26:26.908Z,365.00
2023-05-19T09:27:26.925Z,366.00
2023-05-19T09:28:26.927Z,368.00
2023-05-19T09:29:26.905Z,370.00
2023-05-19T09:30:26.897Z,373.00
2023-05-19T09:31:26.891Z,372.00
2023-05-19T09:32:27.243Z,374.00
2023-05-19T09:33:26.922Z,371.00
2023-05-19T09:34:26.860Z,370.00
2023-05-19T09:35:26.906Z,367.00
2023-05-19T09:36:26.901Z,367.00
2023-05-19T09:37:26.872Z,366.00
2023-05-19T09:38:26.943Z,365.00
2023-05-19T09:39:26.872Z,365.00
2023-05-19T09:40:26.839Z,368.00
2023-05-19T09:41:26.846Z,369.00
2023-05-19T09:42:26.828Z,368.00
2023-05-19T09:43:26.819Z,366.00
2023-05-19T09:44:26.817Z,367.00
2023-05-19T09:45:26.847Z,368.00
2023-05-19T09:46:26.866Z,369.00
2023-05-19T09:47:26.823Z,367.00
2023-05-19T09:48:26.823Z,365.00
2023-05-19T09:49:26.788Z,365.00
2023-05-19T09:50:26.932Z,365.00
2023-05-19T09:51:26.750Z,365.00
2023-05-19T09:52:26.795Z,365.00
2023-05-19T09:53:26.808Z,363.00
2023-05-19T09:54:26.765Z,362.00
2023-05-19T09:55:26.736Z,359.00
2023-05-19T09:56:26.763Z,356.00
2023-05-19T09:57:26.713Z,355.00
2023-05-19T09:58:26.819Z,356.00
2023-05-19T09:59:27.540Z,358.00
2023-05-19T10:00:26.708Z,357.00
2023-05-19T10:01:26.813Z,354.00
2023-05-19T10:02:26.736Z,356.00
2023-05-19T10:03:26.739Z,356.00
2023-05-19T10:04:26.663Z,354.00
2023-05-19T10:05:26.701Z,356.00
2023-05-19T10:06:26.678Z,357.00
2023-05-19T10:07:26.678Z,358.00
2023-05-19T10:08:26.686Z,359.00
2023-05-19T10:09:26.641Z,357.00
2023-05-19T10:10:26.679Z,355.00
2023-05-19T10:11:26.669Z,355.00
2023-05-19T10:12:26.667Z,354.00
2023-05-19T10:13:26.627Z,353.00
2023-05-19T10:14:26.631Z,356.00
2023-05-19T10:15:26.573Z,354.00
2023-05-19T10:16:26.672Z,355.00
2023-05-19T10:17:26.667Z,355.00
2023-05-19T10:18:26.590Z,356.00
2023-05-19T10:19:26.761Z,356.00
2023-05-19T10:20:26.567Z,355.00
2023-05-19T10:21:26.580Z,356.00
2023-05-19T10:22:26.615Z,354.00
2023-05-19T10:23:26.647Z,357.00
2023-05-19T10:24:26.639Z,359.00
2023-05-19T10:25:26.690Z,358.00
2023-05-19T10:26:26.750Z,356.00
2023-05-19T10:27:26.765Z,357.00
2023-05-19T10:28:26.861Z,357.00
2023-05-19T10:29:26.936Z,357.00
2023-05-19T10:30:26.994Z,358.00
2023-05-19T10:31:27.072Z,359.00
2023-05-19T10:32:27.311Z,359.00
2023-05-19T10:33:27.176Z,359.00
2023-05-19T10:34:27.228Z,358.00
2023-05-19T10:35:27.278Z,359.00
2023-05-19T10:36:27.329Z,358.00
2023-05-19T10:37:27.399Z,357.00
2023-05-19T10:38:27.445Z,355.00
2023-05-19T10:39:27.566Z,355.00
2023-05-19T10:40:27.592Z,359.00
2023-05-19T10:41:27.582Z,360.00
2023-05-19T10:42:27.623Z,360.00
2023-05-19T10:43:27.705Z,362.00
2023-05-19T10:44:28.476Z,363.00
2023-05-19T10:45:27.868Z,360.00
2023-05-19T10:46:27.842Z,360.00
2023-05-19T10:47:27.915Z,360.00
2023-05-19T10:48:27.888Z,359.00
2023-05-19T10:49:27.999Z,359.00
2023-05-19T10:50:28.002Z,359.00
2023-05-19T10:51:28.058Z,358.00
2023-05-19T10:52:28.081Z,358.00
2023-05-19T10:53:28.125Z,358.00
2023-05-19T10:54:28.183Z,358.00
2023-05-19T10:55:28.227Z,358.00
2023-05-19T10:56:28.214Z,359.00
2023-05-19T10:57:28.280Z,358.00
2023-05-19T10:58:28.365Z,358.00
2023-05-19T10:59:29.608Z,355.00
2023-05-19T11:00:28.464Z,356.00
2023-05-19T11:01:28.474Z,358.00
2023-05-19T11:02:28.537Z,357.00
2023-05-19T11:03:29.039Z,353.00
2023-05-19T11:04:28.661Z,353.00
2023-05-19T11:05:28.584Z,355.00
2023-05-19T11:06:28.676Z,357.00
2023-05-19T11:07:28.670Z,355.00
2023-05-19T11:08:28.742Z,356.00
2023-05-19T11:09:39.696Z,356.00
2023-05-19T11:10:29.785Z,355.00
2023-05-19T11:11:28.775Z,356.00
2023-05-19T11:12:28.780Z,357.00
2023-05-19T11:13:28.729Z,358.00
2023-05-19T11:14:28.730Z,360.00
2023-05-19T11:15:28.754Z,360.00
2023-05-19T11:16:28.748Z,358.00
2023-05-19T11:17:28.727Z,355.00
2023-05-19T11:18:28.711Z,354.00
2023-05-19T11:19:28.849Z,355.00
2023-05-19T11:20:28.729Z,356.00
2023-05-19T11:21:28.714Z,358.00
2023-05-19T11:22:28.677Z,359.00
2023-05-19T11:23:28.710Z,359.00
2023-05-19T11:24:28.638Z,361.00
2023-05-19T11:25:28.751Z,359.00
2023-05-19T11:26:28.714Z,358.00
2023-05-19T11:27:28.637Z,358.00
2023-05-19T11:28:28.724Z,359.00
2023-05-19T11:29:28.668Z,357.00
2023-05-19T11:30:28.683Z,353.00
2023-05-19T11:31:28.751Z,350.00
2023-05-19T11:32:28.714Z,352.00
2023-05-19T11:33:28.752Z,349.00
2023-05-19T11:34:28.719Z,353.00
2023-05-19T11:35:28.763Z,350.00
2023-05-19T11:36:28.736Z,349.00
2023-05-19T11:37:28.792Z,351.00
2023-05-19T11:38:28.779Z,351.00
2023-05-19T11:39:28.786Z,350.00
2023-05-19T11:40:28.795Z,353.00
2023-05-19T11:41:28.802Z,349.00
2023-05-19T11:42:28.811Z,349.00
2023-05-19T11:43:28.811Z,348.00
2023-05-19T11:44:28.825Z,350.00
2023-05-19T11:45:28.840Z,351.00
2023-05-19T11:46:28.846Z,351.00
2023-05-19T11:47:28.817Z,350.00
2023-05-19T11:48:28.856Z,351.00
2023-05-19T11:49:28.817Z,353.00
2023-05-19T11:50:28.832Z,353.00
2023-05-19T11:51:28.786Z,351.00
2023-05-19T11:52:28.832Z,351.00
2023-05-19T11:53:28.800Z,349.00
2023-05-19T11:54:28.782Z,349.00
2023-05-19T11:55:28.785Z,351.00
2023-05-19T11:56:28.786Z,352.00
2023-05-19T11:57:28.806Z,354.00
2023-05-19T11:58:28.915Z,355.00
2023-05-19T11:59:28.845Z,356.00
2023-05-19T12:00:28.827Z,355.00
2023-05-19T12:01:28.788Z,357.00
2023-05-19T12:02:28.905Z,355.00
2023-05-19T12:03:28.999Z,353.00
2023-05-19T12:04:28.859Z,352.00
2023-05-19T12:05:28.842Z,350.00
2023-05-19T12:06:28.886Z,348.00
2023-05-19T12:07:28.842Z,348.00
2023-05-19T12:08:28.788Z,349.00
2023-05-19T12:09:28.791Z,350.00
2023-05-19T12:10:28.805Z,350.00
2023-05-19T12:11:28.792Z,348.00
2023-05-19T12:12:28.806Z,351.00
2023-05-19T12:13:28.816Z,352.00
2023-05-19T12:14:28.770Z,352.00
2023-05-19T12:15:28.792Z,351.00
2023-05-19T12:16:29.721Z,354.00
2023-05-19T12:17:28.834Z,356.00
2023-05-19T12:18:28.795Z,353.00
2023-05-19T12:19:28.939Z,351.00
2023-05-19T12:20:28.761Z,353.00
2023-05-19T12:21:33.906Z,353.00
2023-05-19T12:22:29.794Z,353.00
2023-05-19T12:23:28.795Z,353.00
2023-05-19T12:24:28.781Z,354.00
2023-05-19T12:25:28.798Z,354.00
2023-05-19T12:26:28.797Z,357.00
2023-05-19T12:27:28.756Z,357.00
2023-05-19T12:28:28.747Z,356.00
2023-05-19T12:29:28.795Z,357.00
2023-05-19T12:30:28.766Z,354.00